createdAt,value
2024-04-24T00:00:27.244Z,1.6923
2024-04-24T00:05:33.803Z,1.5978
2024-04-24T00:10:40.804Z,1.6084
2024-04-24T00:15:47.014Z,1.2622
2024-04-24T00:20:53.642Z,1.2783
2024-04-24T00:26:00.050Z,1.3521
2024-04-24T00:31:06.445Z,1.2363
2024-04-24T00:36:12.978Z,1.2108
2024-04-24T00:41:19.432Z,1.2208
2024-04-24T00:46:25.882Z,0.895
2024-04-24T00:51:32.624Z,1.303
2024-04-24T00:56:39.067Z,1.7691
2024-04-24T01:01:45.502Z,1.5232
2024-04-24T01:06:52.097Z,1.4241
2024-04-24T01:11:58.694Z,1.3921
2024-04-24T01:17:05.178Z,1.6853
2024-04-24T01:22:11.667Z,1.8961
2024-04-24T01:27:18.367Z,1.7284
2024-04-24T01:32:25.162Z,1.7655
2024-04-24T01:37:31.724Z,2.0958
2024-04-24T01:42:38.501Z,1.8184
2024-04-24T01:47:45.098Z,1.7768
2024-04-24T01:52:51.550Z,1.919
2024-04-24T01:57:57.870Z,1.6404
2024-04-24T02:03:04.615Z,1.8393
2024-04-24T02:08:11.221Z,2.1164
2024-04-24T02:13:17.848Z,1.7906
2024-04-24T02:18:24.916Z,2.1727
2024-04-24T02:23:31.218Z,1.2617
2024-04-24T02:28:38.095Z,2.0472
2024-04-24T02:33:44.656Z,1.6236
2024-04-24T02:38:51.000Z,2.0637
2024-04-24T02:43:57.941Z,1.9064
2024-04-24T02:49:04.680Z,2.3198
2024-04-24T02:54:11.339Z,2.0312
2024-04-24T02:59:18.001Z,2.0311
2024-04-24T03:04:24.828Z,1.8537
2024-04-24T03:09:34.505Z,1.8747
2024-04-24T03:14:38.243Z,1.8754
2024-04-24T03:19:44.699Z,2.2743
2024-04-24T03:24:51.498Z,2.5419
2024-04-24T03:29:58.222Z,2.1178
2024-04-24T03:35:04.649Z,2.1697
2024-04-24T03:40:11.100Z,2.284
2024-04-24T03:45:17.494Z,2.1938
2024-04-24T03:50:24.319Z,2.3612
2024-04-24T03:55:30.883Z,2.1461
2024-04-24T04:00:37.472Z,2.2764
2024-04-24T04:05:44.172Z,2.0088
2024-04-24T04:10:51.145Z,2.5622
2024-04-24T04:15:57.314Z,2.6492
2024-04-24T04:21:03.979Z,2.6808
2024-04-24T04:26:10.871Z,3.0254
2024-04-24T04:31:17.606Z,2.4662
2024-04-24T04:36:24.392Z,2.9047
2024-04-24T04:41:30.832Z,2.92
2024-04-24T04:46:37.593Z,2.408
2024-04-24T04:51:44.519Z,2.5432
2024-04-24T04:56:51.715Z,3.2121
2024-04-24T05:01:59.734Z,3.186
2024-04-24T05:07:04.565Z,3.2748
2024-04-24T05:12:11.367Z,2.8675
2024-04-24T05:17:17.943Z,2.9196
2024-04-24T05:22:24.577Z,3.316
2024-04-24T05:27:31.082Z,3.4459
2024-04-24T05:32:38.023Z,3.5141
2024-04-24T05:37:44.582Z,3.9014
2024-04-24T05:42:51.318Z,3.8403
2024-04-24T05:47:57.909Z,3.8999
2024-04-24T05:53:04.387Z,3.5594
2024-04-24T05:58:11.141Z,3.482
2024-04-24T06:03:17.869Z,3.0178
2024-04-24T06:08:24.565Z,3.8798
2024-04-24T06:13:31.251Z,3.6713
2024-04-24T06:18:38.041Z,3.446
2024-04-24T06:23:44.803Z,3.6495
2024-04-24T06:28:51.637Z,3.4188
2024-04-24T06:33:58.350Z,4.2372
2024-04-24T06:39:05.254Z,3.4005
2024-04-24T06:44:11.885Z,4.1157
2024-04-24T06:49:18.541Z,4.3756
2024-04-24T06:54:25.365Z,4.9721
2024-04-24T06:59:32.187Z,3.1281
2024-04-24T07:04:38.957Z,3.0832
2024-04-24T07:09:45.581Z,3.6203
2024-04-24T07:14:52.452Z,3.5997
2024-04-24T07:19:59.321Z,3.6951
2024-04-24T07:25:06.064Z,3.8698
2024-04-24T07:30:12.609Z,4.0883
2024-04-24T07:35:19.450Z,3.8787
2024-04-24T07:40:26.266Z,3.6151
2024-04-24T07:45:32.991Z,4.0875
2024-04-24T07:50:40.052Z,4.0084
2024-04-24T07:55:46.667Z,3.6006
2024-04-24T08:00:53.621Z,3.6999
2024-04-24T08:06:00.554Z,3.748
2024-04-24T08:11:07.205Z,3.7164
2024-04-24T08:16:13.697Z,3.387
2024-04-24T08:21:20.445Z,3.0832
2024-04-24T08:26:27.591Z,3.5611
2024-04-24T08:31:34.026Z,3.7081
2024-04-24T08:36:43.629Z,4.0007
2024-04-24T08:41:47.570Z,3.3655
2024-04-24T08:46:54.237Z,3.8829
2024-04-24T08:52:01.174Z,4.4367
2024-04-24T08:57:08.651Z,3.9876
2024-04-24T09:02:17.897Z,3.7367
2024-04-24T09:07:24.399Z,3.3405
2024-04-24T09:12:31.460Z,3.671
2024-04-24T09:17:38.515Z,4.0141
2024-04-24T09:22:45.224Z,4.762
2024-04-24T09:27:52.105Z,3.4482
2024-04-24T09:32:58.967Z,3.5635
2024-04-24T09:38:05.419Z,3.8714
2024-04-24T09:43:11.806Z,1.5783
2024-04-24T09:48:19.308Z,0.3875
2024-04-24T09:53:23.156Z,0.7052
2024-04-24T09:58:29.425Z,0.4958
2024-04-24T10:03:35.981Z,0.719
2024-04-24T10:08:42.796Z,0.427
2024-04-24T10:13:49.434Z,0.6615
2024-04-24T10:18:56.552Z,0.365
2024-04-24T10:24:03.703Z,0.2345
2024-04-24T10:29:10.609Z,0.5539
2024-04-24T10:34:17.793Z,0.5061
2024-04-24T10:39:27.224Z,0.7728
2024-04-24T10:44:34.109Z,0.4024
2024-04-24T10:49:40.948Z,0.8051
2024-04-24T10:54:47.643Z,0.4655
2024-04-24T10:59:54.464Z,0.5337
2024-04-24T11:05:01.271Z,0.4501
2024-04-24T11:10:08.353Z,0.4085
2024-04-24T11:15:15.231Z,0.4453
2024-04-24T11:20:22.042Z,0.3825
2024-04-24T11:25:31.992Z,0.7019
2024-04-24T11:30:36.075Z,0.665
2024-04-24T11:35:43.063Z,0.7484
2024-04-24T11:40:50.144Z,0.5659
2024-04-24T11:45:57.156Z,0.5138
2024-04-24T11:51:03.992Z,0.5977
2024-04-24T11:56:10.811Z,0.7022
2024-04-24T12:01:17.832Z,0.7071
2024-04-24T12:06:24.510Z,0.6814
2024-04-24T12:11:31.309Z,1.1481
2024-04-24T12:16:38.304Z,0.7812
2024-04-24T12:21:45.188Z,0.9808
2024-04-24T12:26:52.387Z,0.8238
2024-04-24T12:31:58.991Z,0.5302
2024-04-24T12:37:05.887Z,0.7875
2024-04-24T12:42:12.898Z,0.4045
2024-04-24T12:47:19.988Z,0.1946
2024-04-24T12:52:26.502Z,0.526
2024-04-24T12:57:33.444Z,0.1893
2024-04-24T13:02:40.363Z,0.5102
2024-04-24T13:07:47.449Z,0.3629
2024-04-24T13:12:53.989Z,0.2998
2024-04-24T13:18:00.981Z,0.3155
2024-04-24T13:23:07.580Z,0.2997
2024-04-24T13:28:13.920Z,0.1997
2024-04-24T13:33:19.887Z,0.2205
2024-04-24T13:38:26.514Z,0.194
2024-04-24T13:43:32.414Z,0.1048
2024-04-24T13:48:40.664Z,0.8956
2024-04-24T13:53:46.052Z,0.3038
2024-04-24T13:58:53.227Z,0.4928
2024-04-24T14:04:00.968Z,0.7609
2024-04-24T14:09:07.882Z,0.415
2024-04-24T14:14:14.696Z,0.1997
2024-04-24T14:19:21.795Z,0.1892
2024-04-24T14:24:28.731Z,0.2629
2024-04-24T14:29:35.645Z,0.2786
2024-04-24T14:34:41.972Z,1.0356
2024-04-24T14:39:49.054Z,0.1419
2024-04-24T14:44:55.611Z,0.3837
2024-04-24T14:50:02.405Z,0.1892
2024-04-24T14:55:08.994Z,0.3153
2024-04-24T15:00:15.632Z,0.3205
2024-04-24T15:05:22.834Z,0.1156
2024-04-24T15:10:30.046Z,0.2574
2024-04-24T15:15:37.427Z,0.4255
2024-04-24T15:20:44.562Z,0.2994
2024-04-24T15:25:51.666Z,0.3362
2024-04-24T15:30:58.997Z,0.5517
2024-04-24T15:36:05.758Z,0.2838
2024-04-24T15:41:12.845Z,0.4047
2024-04-24T15:46:19.971Z,0.1682
2024-04-24T15:51:26.796Z,0.1683
2024-04-24T15:56:33.572Z,0.1157
2024-04-24T16:01:40.670Z,0.1104
2024-04-24T16:06:49.812Z,0.1945
2024-04-24T16:11:56.653Z,0.1315
2024-04-24T16:17:05.855Z,0.2156
2024-04-24T16:22:12.636Z,0.1052
2024-04-24T16:27:19.912Z,0.1473
2024-04-24T16:32:26.411Z,0.4996
2024-04-24T16:37:32.863Z,0.1525
2024-04-24T16:42:39.575Z,0.1788
2024-04-24T16:47:46.269Z,0.226
2024-04-24T16:52:52.894Z,0.9567
2024-04-24T16:57:58.759Z,2.2407
2024-04-24T17:03:05.328Z,0.7915
2024-04-24T17:08:12.110Z,1.953
2024-04-24T17:13:18.829Z,0.4346
2024-04-24T17:18:25.780Z,0.2568
2024-04-24T17:23:31.797Z,0.1833
2024-04-24T17:28:38.476Z,0.1152
2024-04-24T17:33:45.553Z,0.1831
2024-04-24T17:38:51.845Z,0.1203
2024-04-24T17:43:58.709Z,0.2248
2024-04-24T17:49:05.324Z,0.2091
2024-04-24T17:54:11.950Z,0.2978
2024-04-24T17:59:18.745Z,0.2036
2024-04-24T18:04:25.448Z,0.4225
2024-04-24T18:09:32.057Z,0.2763
2024-04-24T18:14:46.635Z,0.4175
2024-04-24T18:19:45.901Z,0.4594
2024-04-24T18:24:52.005Z,0.5273
2024-04-24T18:29:58.831Z,0.2971
2024-04-24T18:35:05.403Z,0.375
2024-04-24T18:40:11.942Z,0.3848
2024-04-24T18:45:18.559Z,0.5094
2024-04-24T18:50:24.839Z,1.3303
2024-04-24T18:55:31.557Z,0.6749
2024-04-24T19:00:38.149Z,0.7631
2024-04-24T19:05:44.998Z,0.6113
2024-04-24T19:10:51.608Z,0.6271
2024-04-24T19:15:58.388Z,0.8386
2024-04-24T19:21:04.976Z,0.6572
2024-04-24T19:26:11.433Z,0.574
2024-04-24T19:31:23.830Z,0.4758
2024-04-24T19:36:24.717Z,0.305
2024-04-24T19:41:31.193Z,0.4552
2024-04-24T19:46:37.914Z,0.6891
2024-04-24T19:51:44.682Z,0.5754
2024-04-24T19:56:51.302Z,0.4768
2024-04-24T20:01:58.044Z,0.5908
2024-04-24T20:07:04.707Z,1.1293
2024-04-24T20:12:11.580Z,0.6946
2024-04-24T20:17:18.498Z,0.617
2024-04-24T20:22:25.062Z,0.669
2024-04-24T20:27:31.483Z,0.8453
2024-04-24T20:32:38.144Z,0.6584
2024-04-24T20:37:44.657Z,0.4456
2024-04-24T20:42:51.257Z,0.7249
2024-04-24T20:47:57.894Z,0.7046
2024-04-24T20:53:06.053Z,0.6527
2024-04-24T20:58:11.183Z,0.8802
2024-04-24T21:03:18.256Z,0.616
2024-04-24T21:08:24.972Z,0.8691
2024-04-24T21:13:31.726Z,0.5637
2024-04-24T21:18:38.627Z,1.2572
2024-04-24T21:23:45.339Z,1.1281
2024-04-24T21:28:51.954Z,0.7606
2024-04-24T21:34:00.645Z,1.0559
2024-04-24T21:39:07.182Z,0.8486
2024-04-24T21:44:13.787Z,0.7091
2024-04-24T21:49:20.139Z,0.7091
2024-04-24T21:54:26.814Z,0.6834
2024-04-24T21:59:35.524Z,0.6108
2024-04-24T22:04:40.130Z,0.7966
2024-04-24T22:09:47.262Z,1.0503
2024-04-24T22:14:53.657Z,1.0505
2024-04-24T22:20:00.379Z,0.9267
2024-04-24T22:25:09.490Z,1.1295
2024-04-24T22:30:13.634Z,1.4649
2024-04-24T22:35:20.633Z,1.0661
2024-04-24T22:40:27.128Z,1.0352
2024-04-24T22:45:33.983Z,1.6285
2024-04-24T22:50:41.103Z,1.1223
2024-04-24T22:55:47.512Z,1.3458
2024-04-24T23:00:54.314Z,0.9779
2024-04-24T23:06:00.890Z,1.2882
2024-04-24T23:11:07.828Z,1.055
2024-04-24T23:16:14.615Z,1.1073
2024-04-24T23:21:21.350Z,1.3283
2024-04-24T23:26:28.164Z,1.1276
2024-04-24T23:31:34.781Z,1.37
2024-04-24T23:36:41.546Z,1.6704
2024-04-24T23:41:48.204Z,1.2214
2024-04-24T23:46:54.884Z,1.3259
2024-04-24T23:52:01.543Z,1.5413
2024-04-24T23:57:08.271Z,1.1064
